California Hornblower — WDB8632 — position and weather

sailwx.info

Track history (hours):
 
Tides and Currents Weather Stations Pressure Air Temp Water Temp Dewpoint Dewpoint Depression Visibility Wind Speed Wind Dir Waves Ship Positions

California Hornblower

Owner: hornblower cruises and events, san francisco, CA. More information available from US FCC via Universal Licensing System and Coast Guard Vessel Documentation Center.

Last reported at 2018-Jun-20 04:36 UTC. Time now 2018-Jun-20 05:22 UTC.
Position N 37°48' W 122°24'.

Length 54 m; draft 4.8 m.

Type: Passenger vessel. MMSI: 366961920.

Date/timePositionNaut miles runAvg speedWind from/ knotsBaromVisibWave heightAir tempDewpointWater temp
2018-Jun-20 04:36N 37°48' W 122°24'0 0.0
2018-Jun-20 04:30N 37°48' W 122°24'1 2.0
2018-Jun-20 04:00N 37°48' W 122°23'1 2.0
2018-Jun-20 03:30N 37°47' W 122°23'3 6.6
2018-Jun-20 03:00N 37°50' W 122°25'1 2.5
2018-Jun-20 02:30N 37°49' W 122°27'3 5.6
2018-Jun-20 01:59N 37°48' W 122°24'0 0.0
2018-Jun-20 01:30N 37°48' W 122°24'0 0.0
2018-Jun-20 00:58N 37°48' W 122°24'0 0.0
2018-Jun-19 21:44N 37°48' W 122°24'0 1.5
2018-Jun-19 21:30N 37°48' W 122°23'1 2.5
2018-Jun-19 21:00N 37°47' W 122°23'3 6.9
2018-Jun-19 20:30N 37°50' W 122°22'4 7.1
2018-Jun-19 20:00N 37°49' W 122°27'1 1.2
2018-Jun-19 19:30N 37°49' W 122°26'2 0.2
2018-Jun-19 06:01N 37°48' W 122°24'0 0.0
2018-Jun-19 06:01N 37°48' W 122°24'0 0.5
2018-Jun-19 05:31N 37°48' W 122°24'0 0.5
2018-Jun-19 05:00N 37°48' W 122°24'0 0.0
2018-Jun-19 04:30N 37°48' W 122°24'0 0.0
2018-Jun-19 04:00N 37°48' W 122°24'0 0.0
2018-Jun-19 03:30N 37°48' W 122°24'0 0.0
2018-Jun-19 03:00N 37°48' W 122°24'0 0.0
2018-Jun-19 02:30N 37°48' W 122°24'0 0.0
2018-Jun-19 02:00N 37°48' W 122°24'0 0.0
2018-Jun-19 01:30N 37°48' W 122°24'0 0.0
2018-Jun-19 01:00N 37°48' W 122°24'0 0.9
2018-Jun-19 00:31N 37°48' W 122°24'0 0.8
2018-Jun-19 00:00N 37°48' W 122°24'0 0.0
2018-Jun-18 05:21N 37°48' W 122°24'0 0.0
2018-Jun-18 05:00N 37°48' W 122°24'0 0.0
2018-Jun-18 04:30N 37°48' W 122°24'1 2.2
2018-Jun-18 04:00N 37°49' W 122°24'3 7.0
2018-Jun-18 03:30N 37°49' W 122°29'3 5.7
2018-Jun-18 03:00N 37°50' W 122°25'3 6.5
2018-Jun-18 02:30N 37°49' W 122°21'2 4.0
2018-Jun-18 02:00N 37°48' W 122°24'0 0.0
2018-Jun-18 01:30N 37°48' W 122°24'0 0.0
2018-Jun-18 01:01N 37°48' W 122°24'0 0.0
2018-Jun-18 00:30N 37°48' W 122°24'0 0.0
2018-Jun-17 23:58N 37°48' W 122°24'0 0.0
2018-Jun-17 23:16N 37°48' W 122°24'0 0.0
2018-Jun-17 23:00N 37°48' W 122°24'0 0.0
2018-Jun-17 22:29N 37°48' W 122°24'0 0.0
2018-Jun-17 22:00N 37°48' W 122°24'0 0.0
2018-Jun-17 21:30N 37°48' W 122°24'0 0.0
2018-Jun-17 21:00N 37°48' W 122°24'1 2.4
2018-Jun-17 20:30N 37°49' W 122°24'3 6.0
2018-Jun-17 20:00N 37°49' W 122°28'2 4.2
2018-Jun-17 19:30N 37°49' W 122°25'2 3.4
2018-Jun-17 19:00N 37°48' W 122°24'0 0.0
2018-Jun-17 18:28N 37°48' W 122°24'0 0.0
2018-Jun-17 17:59N 37°48' W 122°24'0 0.0
2018-Jun-17 17:30N 37°48' W 122°24'0 0.0
2018-Jun-17 05:47N 37°48' W 122°24'0 0.0
2018-Jun-17 05:31N 37°48' W 122°24'2 3.2
2018-Jun-17 05:00N 37°47' W 122°22'2 3.8
2018-Jun-17 04:30N 37°48' W 122°21'1 2.8
2018-Jun-17 04:01N 37°50' W 122°22'2 4.6
2018-Jun-17 03:30N 37°50' W 122°25'1 2.4
2018-Jun-17 03:01N 37°49' W 122°26'2 3.4
2018-Jun-17 02:30N 37°48' W 122°24'0 0.0
2018-Jun-17 02:00N 37°48' W 122°24'0 0.0
2018-Jun-17 01:30N 37°48' W 122°24'0 0.0
2018-Jun-17 01:00N 37°48' W 122°24'0 0.0
2018-Jun-17 00:31N 37°48' W 122°24'0 0.7
2018-Jun-17 00:01N 37°48' W 122°23'0 0.6
2018-Jun-16 23:31N 37°48' W 122°24'0 0.1
2018-Jun-16 23:00N 37°48' W 122°24'0 0.0
2018-Jun-16 22:30N 37°48' W 122°24'0 0.4
2018-Jun-16 22:00N 37°48' W 122°23'0 0.3
2018-Jun-16 21:30N 37°48' W 122°24'0 0.0
2018-Jun-16 21:00N 37°48' W 122°24'0 0.0
2018-Jun-16 20:30N 37°48' W 122°24'2 3.3
2018-Jun-16 20:00N 37°49' W 122°24'3 6.8
2018-Jun-16 19:30N 37°49' W 122°29'3 5.6
2018-Jun-16 19:00N 37°49' W 122°25'2 2.9
2018-Jun-16 18:28N 37°48' W 122°24'0 0.0
2018-Jun-16 18:00N 37°48' W 122°24'0 0.0
2018-Jun-16 17:30N 37°48' W 122°24'0 0.0
2018-Jun-16 06:53N 37°48' W 122°24'0 0.0
2018-Jun-16 06:30N 37°48' W 122°24'0 0.0
2018-Jun-16 06:00N 37°48' W 122°24'0 0.0
2018-Jun-16 05:30N 37°48' W 122°24'1 2.6
2018-Jun-16 05:00N 37°48' W 122°22'3 6.5
2018-Jun-16 04:30N 37°48' W 122°18'4 8.6
2018-Jun-16 04:00N 37°50' W 122°22'4 7.0
2018-Jun-16 03:30N 37°50' W 122°27'1 1.7
2018-Jun-16 03:00N 37°49' W 122°26'2 4.5
2018-Jun-16 02:30N 37°48' W 122°24'0 0.0
2018-Jun-16 02:00N 37°48' W 122°24'0 0.0
2018-Jun-16 01:30N 37°48' W 122°24'0 0.0
2018-Jun-16 01:00N 37°48' W 122°24'0 0.0
2018-Jun-16 00:30N 37°48' W 122°24'0 0.0
2018-Jun-16 00:00N 37°48' W 122°24'0 0.0
2018-Jun-15 23:30N 37°48' W 122°24'0 0.2
2018-Jun-15 23:00N 37°48' W 122°24'0 0.1
2018-Jun-15 22:30N 37°48' W 122°24'0 0.0
2018-Jun-15 04:39N 37°48' W 122°24'0 0.0
2018-Jun-15 04:31N 37°48' W 122°24'1 1.1
2018-Jun-15 04:00N 37°48' W 122°23'1 1.0
2018-Jun-15 03:30N 37°48' W 122°22'3 6.3
2018-Jun-15 03:00N 37°50' W 122°26'1 2.8
2018-Jun-15 02:31N 37°49' W 122°27'3 6.0
2018-Jun-15 02:00N 37°48' W 122°24'0 0.0
2018-Jun-15 01:30N 37°48' W 122°24'0 0.0
2018-Jun-15 01:00N 37°48' W 122°24'0 0.0
2018-Jun-15 00:30N 37°48' W 122°24'0 0.4
2018-Jun-15 00:00N 37°48' W 122°23'0 0.4
2018-Jun-14 23:30N 37°48' W 122°24'0 0.0
2018-Jun-14 18:52N 37°48' W 122°24'0 1.0
2018-Jun-14 18:30N 37°48' W 122°24'0 0.7
2018-Jun-14 18:00N 37°48' W 122°24'0 0.0
2018-Jun-14 17:30N 37°48' W 122°24'  
2018-Jun-11 05:18N 37°48' W 122°24'0 0.7
2018-Jun-11 05:00N 37°48' W 122°24'0 0.4
2018-Jun-11 04:30N 37°48' W 122°24'1 2.8
2018-Jun-11 04:00N 37°49' W 122°25'3 5.9
2018-Jun-11 03:30N 37°49' W 122°29'3 6.1
2018-Jun-11 03:00N 37°50' W 122°25'3 5.8
2018-Jun-11 02:30N 37°49' W 122°21'2 4.0
2018-Jun-11 02:00N 37°48' W 122°24'0 0.0
2018-Jun-11 01:30N 37°48' W 122°24'0 0.7
2018-Jun-11 01:00N 37°48' W 122°23'0 0.8
2018-Jun-11 00:30N 37°48' W 122°24'0 0.4
2018-Jun-11 00:00N 37°48' W 122°24'0 0.0
2018-Jun-10 21:40N 37°48' W 122°24'0 0.0
2018-Jun-10 21:30N 37°48' W 122°24'0 0.0
2018-Jun-10 21:00N 37°48' W 122°24'0 0.0
2018-Jun-10 20:30N 37°48' W 122°24'1 2.1
2018-Jun-10 20:00N 37°49' W 122°24'3 5.0
2018-Jun-10 19:30N 37°50' W 122°27'0 0.7
2018-Jun-10 19:00N 37°49' W 122°27'3 5.2
2018-Jun-10 18:30N 37°48' W 122°24'0 0.0
2018-Jun-10 17:54N 37°48' W 122°24'0 0.0
2018-Jun-10 17:30N 37°48' W 122°24'0 0.0
2018-Jun-10 16:59N 37°48' W 122°24'0 0.0
2018-Jun-10 06:22N 37°48' W 122°24'0 0.0
2018-Jun-10 05:59N 37°48' W 122°24'0 0.0
2018-Jun-10 05:29N 37°48' W 122°24'1 1.6
2018-Jun-10 05:00N 37°47' W 122°23'  
Track history (hours):
 
Tides and Currents Weather Stations Pressure Air Temp Water Temp Dewpoint Dewpoint Depression Visibility Wind Speed Wind Dir Waves Ship Positions

California Hornblower

Owner: hornblower cruises and events, san francisco, CA. More information available from US FCC via Universal Licensing System and Coast Guard Vessel Documentation Center.

Last reported at 2018-Jun-20 04:36 UTC. Time now 2018-Jun-20 05:22 UTC.
Position N 37°48' W 122°24'.

Length 54 m; draft 4.8 m.

Type: Passenger vessel. MMSI: 366961920.

Date/timePositionNaut miles runAvg speedWind from/ knotsBaromVisibWave heightAir tempDewpointWater temp
2018-Jun-20 04:36N 37°48' W 122°24'0 0.0
2018-Jun-20 04:30N 37°48' W 122°24'1 2.0
2018-Jun-20 04:00N 37°48' W 122°23'1 2.0
2018-Jun-20 03:30N 37°47' W 122°23'3 6.6
2018-Jun-20 03:00N 37°50' W 122°25'1 2.5
2018-Jun-20 02:30N 37°49' W 122°27'3 5.6
2018-Jun-20 01:59N 37°48' W 122°24'0 0.0
2018-Jun-20 01:30N 37°48' W 122°24'0 0.0
2018-Jun-20 00:58N 37°48' W 122°24'0 0.0
2018-Jun-19 21:44N 37°48' W 122°24'0 1.5
2018-Jun-19 21:30N 37°48' W 122°23'1 2.5
2018-Jun-19 21:00N 37°47' W 122°23'3 6.9
2018-Jun-19 20:30N 37°50' W 122°22'4 7.1
2018-Jun-19 20:00N 37°49' W 122°27'1 1.2
2018-Jun-19 19:30N 37°49' W 122°26'2 0.2
2018-Jun-19 06:01N 37°48' W 122°24'0 0.0
2018-Jun-19 06:01N 37°48' W 122°24'0 0.5
2018-Jun-19 05:31N 37°48' W 122°24'0 0.5
2018-Jun-19 05:00N 37°48' W 122°24'0 0.0
2018-Jun-19 04:30N 37°48' W 122°24'0 0.0
2018-Jun-19 04:00N 37°48' W 122°24'0 0.0
2018-Jun-19 03:30N 37°48' W 122°24'0 0.0
2018-Jun-19 03:00N 37°48' W 122°24'0 0.0
2018-Jun-19 02:30N 37°48' W 122°24'0 0.0
2018-Jun-19 02:00N 37°48' W 122°24'0 0.0
2018-Jun-19 01:30N 37°48' W 122°24'0 0.0
2018-Jun-19 01:00N 37°48' W 122°24'0 0.9
2018-Jun-19 00:31N 37°48' W 122°24'0 0.8
2018-Jun-19 00:00N 37°48' W 122°24'0 0.0
2018-Jun-18 05:21N 37°48' W 122°24'0 0.0
2018-Jun-18 05:00N 37°48' W 122°24'0 0.0
2018-Jun-18 04:30N 37°48' W 122°24'1 2.2
2018-Jun-18 04:00N 37°49' W 122°24'3 7.0
2018-Jun-18 03:30N 37°49' W 122°29'3 5.7
2018-Jun-18 03:00N 37°50' W 122°25'3 6.5
2018-Jun-18 02:30N 37°49' W 122°21'2 4.0
2018-Jun-18 02:00N 37°48' W 122°24'0 0.0
2018-Jun-18 01:30N 37°48' W 122°24'0 0.0
2018-Jun-18 01:01N 37°48' W 122°24'0 0.0
2018-Jun-18 00:30N 37°48' W 122°24'0 0.0
2018-Jun-17 23:58N 37°48' W 122°24'0 0.0
2018-Jun-17 23:16N 37°48' W 122°24'0 0.0
2018-Jun-17 23:00N 37°48' W 122°24'0 0.0
2018-Jun-17 22:29N 37°48' W 122°24'0 0.0
2018-Jun-17 22:00N 37°48' W 122°24'0 0.0
2018-Jun-17 21:30N 37°48' W 122°24'0 0.0
2018-Jun-17 21:00N 37°48' W 122°24'1 2.4
2018-Jun-17 20:30N 37°49' W 122°24'3 6.0
2018-Jun-17 20:00N 37°49' W 122°28'2 4.2
2018-Jun-17 19:30N 37°49' W 122°25'2 3.4
2018-Jun-17 19:00N 37°48' W 122°24'0 0.0
2018-Jun-17 18:28N 37°48' W 122°24'0 0.0
2018-Jun-17 17:59N 37°48' W 122°24'0 0.0
2018-Jun-17 17:30N 37°48' W 122°24'0 0.0
2018-Jun-17 05:47N 37°48' W 122°24'0 0.0
2018-Jun-17 05:31N 37°48' W 122°24'2 3.2
2018-Jun-17 05:00N 37°47' W 122°22'2 3.8
2018-Jun-17 04:30N 37°48' W 122°21'1 2.8
2018-Jun-17 04:01N 37°50' W 122°22'2 4.6
2018-Jun-17 03:30N 37°50' W 122°25'1 2.4
2018-Jun-17 03:01N 37°49' W 122°26'2 3.4
2018-Jun-17 02:30N 37°48' W 122°24'0 0.0
2018-Jun-17 02:00N 37°48' W 122°24'0 0.0
2018-Jun-17 01:30N 37°48' W 122°24'0 0.0
2018-Jun-17 01:00N 37°48' W 122°24'0 0.0
2018-Jun-17 00:31N 37°48' W 122°24'0 0.7
2018-Jun-17 00:01N 37°48' W 122°23'0 0.6
2018-Jun-16 23:31N 37°48' W 122°24'0 0.1
2018-Jun-16 23:00N 37°48' W 122°24'0 0.0
2018-Jun-16 22:30N 37°48' W 122°24'0 0.4
2018-Jun-16 22:00N 37°48' W 122°23'0 0.3
2018-Jun-16 21:30N 37°48' W 122°24'0 0.0
2018-Jun-16 21:00N 37°48' W 122°24'0 0.0
2018-Jun-16 20:30N 37°48' W 122°24'2 3.3
2018-Jun-16 20:00N 37°49' W 122°24'3 6.8
2018-Jun-16 19:30N 37°49' W 122°29'3 5.6
2018-Jun-16 19:00N 37°49' W 122°25'2 2.9
2018-Jun-16 18:28N 37°48' W 122°24'0 0.0
2018-Jun-16 18:00N 37°48' W 122°24'0 0.0
2018-Jun-16 17:30N 37°48' W 122°24'0 0.0
2018-Jun-16 06:53N 37°48' W 122°24'0 0.0
2018-Jun-16 06:30N 37°48' W 122°24'0 0.0
2018-Jun-16 06:00N 37°48' W 122°24'0 0.0
2018-Jun-16 05:30N 37°48' W 122°24'1 2.6
2018-Jun-16 05:00N 37°48' W 122°22'3 6.5
2018-Jun-16 04:30N 37°48' W 122°18'4 8.6
2018-Jun-16 04:00N 37°50' W 122°22'4 7.0
2018-Jun-16 03:30N 37°50' W 122°27'1 1.7
2018-Jun-16 03:00N 37°49' W 122°26'2 4.5
2018-Jun-16 02:30N 37°48' W 122°24'0 0.0
2018-Jun-16 02:00N 37°48' W 122°24'0 0.0
2018-Jun-16 01:30N 37°48' W 122°24'0 0.0
2018-Jun-16 01:00N 37°48' W 122°24'0 0.0
2018-Jun-16 00:30N 37°48' W 122°24'0 0.0
2018-Jun-16 00:00N 37°48' W 122°24'0 0.0
2018-Jun-15 23:30N 37°48' W 122°24'0 0.2
2018-Jun-15 23:00N 37°48' W 122°24'0 0.1
2018-Jun-15 22:30N 37°48' W 122°24'0 0.0
2018-Jun-15 04:39N 37°48' W 122°24'0 0.0
2018-Jun-15 04:31N 37°48' W 122°24'1 1.1
2018-Jun-15 04:00N 37°48' W 122°23'1 1.0
2018-Jun-15 03:30N 37°48' W 122°22'3 6.3
2018-Jun-15 03:00N 37°50' W 122°26'1 2.8
2018-Jun-15 02:31N 37°49' W 122°27'3 6.0
2018-Jun-15 02:00N 37°48' W 122°24'0 0.0
2018-Jun-15 01:30N 37°48' W 122°24'0 0.0
2018-Jun-15 01:00N 37°48' W 122°24'0 0.0
2018-Jun-15 00:30N 37°48' W 122°24'0 0.4
2018-Jun-15 00:00N 37°48' W 122°23'0 0.4
2018-Jun-14 23:30N 37°48' W 122°24'0 0.0
2018-Jun-14 18:52N 37°48' W 122°24'0 1.0
2018-Jun-14 18:30N 37°48' W 122°24'0 0.7
2018-Jun-14 18:00N 37°48' W 122°24'0 0.0
2018-Jun-14 17:30N 37°48' W 122°24'  
2018-Jun-11 05:18N 37°48' W 122°24'0 0.7
2018-Jun-11 05:00N 37°48' W 122°24'0 0.4
2018-Jun-11 04:30N 37°48' W 122°24'1 2.8
2018-Jun-11 04:00N 37°49' W 122°25'3 5.9
2018-Jun-11 03:30N 37°49' W 122°29'3 6.1
2018-Jun-11 03:00N 37°50' W 122°25'3 5.8
2018-Jun-11 02:30N 37°49' W 122°21'2 4.0
2018-Jun-11 02:00N 37°48' W 122°24'0 0.0
2018-Jun-11 01:30N 37°48' W 122°24'0 0.7
2018-Jun-11 01:00N 37°48' W 122°23'0 0.8
2018-Jun-11 00:30N 37°48' W 122°24'0 0.4
2018-Jun-11 00:00N 37°48' W 122°24'0 0.0
2018-Jun-10 21:40N 37°48' W 122°24'0 0.0
2018-Jun-10 21:30N 37°48' W 122°24'0 0.0
2018-Jun-10 21:00N 37°48' W 122°24'0 0.0
2018-Jun-10 20:30N 37°48' W 122°24'1 2.1
2018-Jun-10 20:00N 37°49' W 122°24'3 5.0
2018-Jun-10 19:30N 37°50' W 122°27'0 0.7
2018-Jun-10 19:00N 37°49' W 122°27'3 5.2
2018-Jun-10 18:30N 37°48' W 122°24'0 0.0
2018-Jun-10 17:54N 37°48' W 122°24'0 0.0
2018-Jun-10 17:30N 37°48' W 122°24'0 0.0
2018-Jun-10 16:59N 37°48' W 122°24'0 0.0
2018-Jun-10 06:22N 37°48' W 122°24'0 0.0
2018-Jun-10 05:59N 37°48' W 122°24'0 0.0
2018-Jun-10 05:29N 37°48' W 122°24'1 1.6
2018-Jun-10 05:00N 37°47' W 122°23'  

Dump ship's entire track history